sensor_id;sensor_type;location;lat;lon;timestamp;P1;durP1;ratioP1;P2;durP2;ratioP2
59960;SDS011;55902;-37.980;-63.602;2023-05-07T00:00:19;15.48;;;7.95;;
59960;SDS011;55902;-37.980;-63.602;2023-05-07T00:02:46;24.00;;;12.60;;
59960;SDS011;55902;-37.980;-63.602;2023-05-07T00:05:13;19.60;;;10.73;;
59960;SDS011;55902;-37.980;-63.602;2023-05-07T00:07:40;14.98;;;6.45;;
59960;SDS011;55902;-37.980;-63.602;2023-05-07T00:10:07;13.23;;;5.30;;
59960;SDS011;55902;-37.980;-63.602;2023-05-07T00:12:37;10.70;;;5.28;;
59960;SDS011;55902;-37.980;-63.602;2023-05-07T00:15:05;11.38;;;5.88;;
59960;SDS011;55902;-37.980;-63.602;2023-05-07T00:17:35;11.00;;;5.97;;
59960;SDS011;55902;-37.980;-63.602;2023-05-07T00:20:03;11.90;;;4.88;;
59960;SDS011;55902;-37.980;-63.602;2023-05-07T00:22:31;15.27;;;5.28;;
59960;SDS011;55902;-37.980;-63.602;2023-05-07T00:24:58;12.68;;;7.75;;
59960;SDS011;55902;-37.980;-63.602;2023-05-07T00:27:25;17.20;;;7.82;;
59960;SDS011;55902;-37.980;-63.602;2023-05-07T00:29:52;14.30;;;6.60;;
59960;SDS011;55902;-37.980;-63.602;2023-05-07T00:32:19;18.08;;;7.45;;
59960;SDS011;55902;-37.980;-63.602;2023-05-07T00:34:46;20.20;;;10.90;;
59960;SDS011;55902;-37.980;-63.602;2023-05-07T00:37:13;14.32;;;8.13;;
59960;SDS011;55902;-37.980;-63.602;2023-05-07T00:39:40;11.43;;;4.70;;
59960;SDS011;55902;-37.980;-63.602;2023-05-07T00:42:07;8.07;;;3.90;;
59960;SDS011;55902;-37.980;-63.602;2023-05-07T00:44:34;9.25;;;4.10;;
59960;SDS011;55902;-37.980;-63.602;2023-05-07T00:47:01;5.95;;;3.03;;
59960;SDS011;55902;-37.980;-63.602;2023-05-07T00:49:34;7.50;;;3.03;;
59960;SDS011;55902;-37.980;-63.602;2023-05-07T00:52:07;9.85;;;4.20;;
59960;SDS011;55902;-37.980;-63.602;2023-05-07T00:54:37;9.65;;;3.80;;
59960;SDS011;55902;-37.980;-63.602;2023-05-07T00:57:06;6.75;;;3.55;;
59960;SDS011;55902;-37.980;-63.602;2023-05-07T00:59:35;12.43;;;3.40;;
59960;SDS011;55902;-37.980;-63.602;2023-05-07T01:02:02;4.93;;;3.20;;
59960;SDS011;55902;-37.980;-63.602;2023-05-07T01:04:29;9.18;;;3.45;;
59960;SDS011;55902;-37.980;-63.602;2023-05-07T01:06:56;6.93;;;3.05;;
59960;SDS011;55902;-37.980;-63.602;2023-05-07T01:09:25;9.35;;;2.75;;
59960;SDS011;55902;-37.980;-63.602;2023-05-07T01:11:52;7.05;;;2.50;;
59960;SDS011;55902;-37.980;-63.602;2023-05-07T01:14:22;14.60;;;2.80;;
59960;SDS011;55902;-37.980;-63.602;2023-05-07T01:16:49;4.38;;;2.03;;
59960;SDS011;55902;-37.980;-63.602;2023-05-07T01:19:19;5.82;;;2.30;;
59960;SDS011;55902;-37.980;-63.602;2023-05-07T01:21:47;11.98;;;4.80;;
59960;SDS011;55902;-37.980;-63.602;2023-05-07T01:24:15;15.55;;;8.07;;
59960;SDS011;55902;-37.980;-63.602;2023-05-07T01:26:43;20.38;;;10.18;;
59960;SDS011;55902;-37.980;-63.602;2023-05-07T01:29:10;20.67;;;11.65;;
59960;SDS011;55902;-37.980;-63.602;2023-05-07T01:31:37;19.40;;;10.40;;
59960;SDS011;55902;-37.980;-63.602;2023-05-07T01:34:07;18.02;;;9.75;;
59960;SDS011;55902;-37.980;-63.602;2023-05-07T01:36:35;10.63;;;3.80;;
59960;SDS011;55902;-37.980;-63.602;2023-05-07T01:39:05;7.85;;;3.50;;
59960;SDS011;55902;-37.980;-63.602;2023-05-07T01:41:34;9.77;;;3.80;;
59960;SDS011;55902;-37.980;-63.602;2023-05-07T01:44:01;8.90;;;4.68;;
59960;SDS011;55902;-37.980;-63.602;2023-05-07T01:46:31;9.30;;;3.67;;
59960;SDS011;55902;-37.980;-63.602;2023-05-07T01:49:00;5.72;;;2.90;;
59960;SDS011;55902;-37.980;-63.602;2023-05-07T01:51:29;5.30;;;3.10;;
59960;SDS011;55902;-37.980;-63.602;2023-05-07T01:53:57;5.05;;;3.28;;
59960;SDS011;55902;-37.980;-63.602;2023-05-07T01:56:25;5.10;;;3.08;;
59960;SDS011;55902;-37.980;-63.602;2023-05-07T01:58:52;6.47;;;2.88;;
59960;SDS011;55902;-37.980;-63.602;2023-05-07T02:01:19;5.80;;;2.10;;
59960;SDS011;55902;-37.980;-63.602;2023-05-07T02:03:46;9.45;;;2.17;;
59960;SDS011;55902;-37.980;-63.602;2023-05-07T02:06:13;4.13;;;1.90;;
59960;SDS011;55902;-37.980;-63.602;2023-05-07T02:08:40;4.90;;;1.90;;
59960;SDS011;55902;-37.980;-63.602;2023-05-07T02:11:07;4.53;;;2.05;;
59960;SDS011;55902;-37.980;-63.602;2023-05-07T02:13:34;4.30;;;1.88;;
59960;SDS011;55902;-37.980;-63.602;2023-05-07T02:16:02;5.90;;;1.92;;
59960;SDS011;55902;-37.980;-63.602;2023-05-07T02:18:29;3.95;;;1.85;;
59960;SDS011;55902;-37.980;-63.602;2023-05-07T02:20:57;4.35;;;1.90;;
59960;SDS011;55902;-37.980;-63.602;2023-05-07T02:23:24;5.18;;;2.10;;
59960;SDS011;55902;-37.980;-63.602;2023-05-07T02:25:51;3.22;;;2.20;;
59960;SDS011;55902;-37.980;-63.602;2023-05-07T02:28:18;4.55;;;2.10;;
59960;SDS011;55902;-37.980;-63.602;2023-05-07T02:30:45;5.63;;;2.40;;
59960;SDS011;55902;-37.980;-63.602;2023-05-07T02:33:12;4.15;;;1.90;;
59960;SDS011;55902;-37.980;-63.602;2023-05-07T02:35:39;4.57;;;2.25;;
59960;SDS011;55902;-37.980;-63.602;2023-05-07T02:38:06;4.35;;;2.50;;
59960;SDS011;55902;-37.980;-63.602;2023-05-07T02:40:36;4.70;;;2.63;;
59960;SDS011;55902;-37.980;-63.602;2023-05-07T02:43:06;5.53;;;2.63;;
59960;SDS011;55902;-37.980;-63.602;2023-05-07T02:45:33;4.45;;;2.30;;
59960;SDS011;55902;-37.980;-63.602;2023-05-07T02:48:00;6.00;;;2.30;;
59960;SDS011;55902;-37.980;-63.602;2023-05-07T02:50:27;7.53;;;2.30;;
59960;SDS011;55902;-37.980;-63.602;2023-05-07T02:52:54;6.18;;;2.03;;
59960;SDS011;55902;-37.980;-63.602;2023-05-07T02:55:21;7.47;;;2.28;;
59960;SDS011;55902;-37.980;-63.602;2023-05-07T02:57:48;3.80;;;2.10;;
59960;SDS011;55902;-37.980;-63.602;2023-05-07T03:00:18;5.40;;;1.90;;
59960;SDS011;55902;-37.980;-63.602;2023-05-07T03:02:45;5.00;;;2.50;;
59960;SDS011;55902;-37.980;-63.602;2023-05-07T03:05:12;6.95;;;2.10;;
59960;SDS011;55902;-37.980;-63.602;2023-05-07T03:07:39;4.75;;;2.15;;
59960;SDS011;55902;-37.980;-63.602;2023-05-07T03:10:10;3.80;;;2.00;;
59960;SDS011;55902;-37.980;-63.602;2023-05-07T03:12:37;4.20;;;2.25;;
59960;SDS011;55902;-37.980;-63.602;2023-05-07T03:15:04;5.18;;;2.30;;
59960;SDS011;55902;-37.980;-63.602;2023-05-07T03:17:32;3.53;;;2.60;;
59960;SDS011;55902;-37.980;-63.602;2023-05-07T03:19:59;3.97;;;2.58;;
59960;SDS011;55902;-37.980;-63.602;2023-05-07T03:22:29;4.93;;;2.28;;
59960;SDS011;55902;-37.980;-63.602;2023-05-07T03:24:56;8.43;;;2.58;;
59960;SDS011;55902;-37.980;-63.602;2023-05-07T03:27:23;4.95;;;2.20;;
59960;SDS011;55902;-37.980;-63.602;2023-05-07T03:29:49;5.70;;;2.47;;
59960;SDS011;55902;-37.980;-63.602;2023-05-07T03:32:16;5.55;;;2.50;;
59960;SDS011;55902;-37.980;-63.602;2023-05-07T03:34:43;8.20;;;2.67;;
59960;SDS011;55902;-37.980;-63.602;2023-05-07T03:37:10;3.83;;;2.20;;
59960;SDS011;55902;-37.980;-63.602;2023-05-07T03:39:37;5.45;;;2.10;;
59960;SDS011;55902;-37.980;-63.602;2023-05-07T03:42:04;6.82;;;2.45;;
59960;SDS011;55902;-37.980;-63.602;2023-05-07T03:44:31;5.93;;;2.30;;
59960;SDS011;55902;-37.980;-63.602;2023-05-07T03:46:58;2.92;;;2.17;;
59960;SDS011;55902;-37.980;-63.602;2023-05-07T03:49:25;4.72;;;2.42;;
59960;SDS011;55902;-37.980;-63.602;2023-05-07T03:51:52;6.22;;;2.40;;
59960;SDS011;55902;-37.980;-63.602;2023-05-07T03:54:19;7.38;;;2.60;;
59960;SDS011;55902;-37.980;-63.602;2023-05-07T03:56:46;4.50;;;2.40;;
59960;SDS011;55902;-37.980;-63.602;2023-05-07T03:59:13;5.25;;;2.38;;
59960;SDS011;55902;-37.980;-63.602;2023-05-07T04:01:40;6.88;;;2.97;;
59960;SDS011;55902;-37.980;-63.602;2023-05-07T04:04:07;7.95;;;2.55;;
59960;SDS011;55902;-37.980;-63.602;2023-05-07T04:06:34;4.93;;;2.20;;
59960;SDS011;55902;-37.980;-63.602;2023-05-07T04:09:01;6.68;;;2.75;;
59960;SDS011;55902;-37.980;-63.602;2023-05-07T04:11:28;4.68;;;2.50;;
59960;SDS011;55902;-37.980;-63.602;2023-05-07T04:17:35;7.85;;;2.88;;
59960;SDS011;55902;-37.980;-63.602;2023-05-07T04:34:49;3.75;;;2.15;;
59960;SDS011;55902;-37.980;-63.602;2023-05-07T04:37:16;4.63;;;2.00;;
59960;SDS011;55902;-37.980;-63.602;2023-05-07T04:39:44;6.70;;;2.70;;
59960;SDS011;55902;-37.980;-63.602;2023-05-07T04:42:14;7.57;;;3.03;;
59960;SDS011;55902;-37.980;-63.602;2023-05-07T04:44:41;6.22;;;3.13;;
59960;SDS011;55902;-37.980;-63.602;2023-05-07T04:47:09;4.78;;;2.50;;
59960;SDS011;55902;-37.980;-63.602;2023-05-07T04:49:36;3.22;;;2.40;;
59960;SDS011;55902;-37.980;-63.602;2023-05-07T04:52:06;5.00;;;2.50;;
59960;SDS011;55902;-37.980;-63.602;2023-05-07T04:54:33;6.22;;;2.72;;
59960;SDS011;55902;-37.980;-63.602;2023-05-07T04:57:00;4.47;;;2.40;;
59960;SDS011;55902;-37.980;-63.602;2023-05-07T04:59:30;2.65;;;2.10;;
59960;SDS011;55902;-37.980;-63.602;2023-05-07T05:01:57;3.08;;;2.00;;
59960;SDS011;55902;-37.980;-63.602;2023-05-07T05:04:24;3.47;;;2.00;;
59960;SDS011;55902;-37.980;-63.602;2023-05-07T05:06:51;3.33;;;2.00;;
59960;SDS011;55902;-37.980;-63.602;2023-05-07T05:09:18;4.25;;;2.40;;
59960;SDS011;55902;-37.980;-63.602;2023-05-07T05:11:45;5.05;;;2.30;;
59960;SDS011;55902;-37.980;-63.602;2023-05-07T05:14:12;3.78;;;2.10;;
59960;SDS011;55902;-37.980;-63.602;2023-05-07T05:16:39;3.13;;;2.03;;
59960;SDS011;55902;-37.980;-63.602;2023-05-07T05:19:06;5.65;;;2.17;;
59960;SDS011;55902;-37.980;-63.602;2023-05-07T05:21:33;6.25;;;2.30;;
59960;SDS011;55902;-37.980;-63.602;2023-05-07T05:24:00;4.70;;;2.47;;
59960;SDS011;55902;-37.980;-63.602;2023-05-07T05:29:49;4.38;;;1.90;;
59960;SDS011;55902;-37.980;-63.602;2023-05-07T05:32:17;3.30;;;2.20;;
59960;SDS011;55902;-37.980;-63.602;2023-05-07T05:45:48;3.45;;;2.15;;
59960;SDS011;55902;-37.980;-63.602;2023-05-07T05:48:15;5.15;;;2.30;;
59960;SDS011;55902;-37.980;-63.602;2023-05-07T05:50:42;3.13;;;2.10;;
59960;SDS011;55902;-37.980;-63.602;2023-05-07T05:53:09;3.05;;;2.10;;
59960;SDS011;55902;-37.980;-63.602;2023-05-07T05:55:36;3.17;;;1.95;;
59960;SDS011;55902;-37.980;-63.602;2023-05-07T05:58:03;3.97;;;2.30;;
59960;SDS011;55902;-37.980;-63.602;2023-05-07T06:00:30;2.90;;;1.90;;
59960;SDS011;55902;-37.980;-63.602;2023-05-07T06:02:57;5.25;;;2.10;;
59960;SDS011;55902;-37.980;-63.602;2023-05-07T06:05:24;3.40;;;2.20;;
59960;SDS011;55902;-37.980;-63.602;2023-05-07T06:07:51;3.80;;;2.42;;
59960;SDS011;55902;-37.980;-63.602;2023-05-07T06:10:18;3.33;;;2.35;;
59960;SDS011;55902;-37.980;-63.602;2023-05-07T06:12:45;4.75;;;2.42;;
59960;SDS011;55902;-37.980;-63.602;2023-05-07T06:15:15;3.33;;;2.20;;
59960;SDS011;55902;-37.980;-63.602;2023-05-07T06:17:42;6.93;;;2.20;;
59960;SDS011;55902;-37.980;-63.602;2023-05-07T06:20:09;4.07;;;2.22;;
59960;SDS011;55902;-37.980;-63.602;2023-05-07T06:22:36;6.47;;;2.10;;
59960;SDS011;55902;-37.980;-63.602;2023-05-07T06:25:03;3.47;;;2.20;;
59960;SDS011;55902;-37.980;-63.602;2023-05-07T06:27:31;3.53;;;2.10;;
59960;SDS011;55902;-37.980;-63.602;2023-05-07T06:29:58;5.90;;;2.20;;
59960;SDS011;55902;-37.980;-63.602;2023-05-07T06:32:24;4.30;;;2.00;;
59960;SDS011;55902;-37.980;-63.602;2023-05-07T06:34:51;3.80;;;2.28;;
59960;SDS011;55902;-37.980;-63.602;2023-05-07T06:47:25;4.45;;;2.20;;
59960;SDS011;55902;-37.980;-63.602;2023-05-07T06:49:52;5.20;;;4.40;;
59960;SDS011;55902;-37.980;-63.602;2023-05-07T06:52:19;4.80;;;2.80;;
59960;SDS011;55902;-37.980;-63.602;2023-05-07T06:54:46;6.75;;;2.50;;
59960;SDS011;55902;-37.980;-63.602;2023-05-07T06:57:13;3.83;;;2.25;;
59960;SDS011;55902;-37.980;-63.602;2023-05-07T06:59:40;2.97;;;2.22;;
59960;SDS011;55902;-37.980;-63.602;2023-05-07T07:02:07;3.85;;;2.20;;
59960;SDS011;55902;-37.980;-63.602;2023-05-07T07:04:34;5.55;;;2.10;;
59960;SDS011;55902;-37.980;-63.602;2023-05-07T07:07:01;4.97;;;2.20;;
59960;SDS011;55902;-37.980;-63.602;2023-05-07T07:09:28;2.75;;;2.00;;
59960;SDS011;55902;-37.980;-63.602;2023-05-07T07:11:55;6.07;;;2.40;;
59960;SDS011;55902;-37.980;-63.602;2023-05-07T07:14:22;5.35;;;2.17;;
59960;SDS011;55902;-37.980;-63.602;2023-05-07T07:16:49;3.13;;;2.10;;
59960;SDS011;55902;-37.980;-63.602;2023-05-07T07:19:16;5.65;;;2.08;;
59960;SDS011;55902;-37.980;-63.602;2023-05-07T07:21:43;5.85;;;2.20;;
59960;SDS011;55902;-37.980;-63.602;2023-05-07T07:24:10;2.70;;;2.00;;
59960;SDS011;55902;-37.980;-63.602;2023-05-07T07:26:37;4.72;;;2.10;;
59960;SDS011;55902;-37.980;-63.602;2023-05-07T07:29:05;5.53;;;2.20;;
59960;SDS011;55902;-37.980;-63.602;2023-05-07T07:31:32;4.13;;;2.10;;
59960;SDS011;55902;-37.980;-63.602;2023-05-07T07:33:59;3.40;;;2.00;;
59960;SDS011;55902;-37.980;-63.602;2023-05-07T07:36:26;3.40;;;2.28;;
59960;SDS011;55902;-37.980;-63.602;2023-05-07T07:38:53;8.23;;;2.40;;
59960;SDS011;55902;-37.980;-63.602;2023-05-07T07:41:20;2.75;;;1.80;;
59960;SDS011;55902;-37.980;-63.602;2023-05-07T07:43:47;4.05;;;2.40;;
59960;SDS011;55902;-37.980;-63.602;2023-05-07T07:46:14;6.97;;;1.98;;
59960;SDS011;55902;-37.980;-63.602;2023-05-07T07:48:41;3.05;;;2.17;;
59960;SDS011;55902;-37.980;-63.602;2023-05-07T07:51:08;3.53;;;2.10;;
59960;SDS011;55902;-37.980;-63.602;2023-05-07T07:53:35;5.18;;;2.20;;
59960;SDS011;55902;-37.980;-63.602;2023-05-07T07:56:02;3.13;;;2.10;;
59960;SDS011;55902;-37.980;-63.602;2023-05-07T07:58:29;3.70;;;2.10;;
59960;SDS011;55902;-37.980;-63.602;2023-05-07T08:00:56;5.10;;;2.10;;
59960;SDS011;55902;-37.980;-63.602;2023-05-07T08:03:23;3.25;;;2.10;;
59960;SDS011;55902;-37.980;-63.602;2023-05-07T08:05:50;5.22;;;2.20;;
59960;SDS011;55902;-37.980;-63.602;2023-05-07T08:11:27;3.75;;;2.17;;
59960;SDS011;55902;-37.980;-63.602;2023-05-07T08:13:54;6.30;;;2.30;;
59960;SDS011;55902;-37.980;-63.602;2023-05-07T08:16:22;3.35;;;2.20;;
59960;SDS011;55902;-37.980;-63.602;2023-05-07T08:18:49;3.15;;;2.40;;
59960;SDS011;55902;-37.980;-63.602;2023-05-07T08:21:16;3.45;;;2.20;;
59960;SDS011;55902;-37.980;-63.602;2023-05-07T08:23:43;4.47;;;2.30;;
59960;SDS011;55902;-37.980;-63.602;2023-05-07T08:26:10;2.45;;;2.20;;
59960;SDS011;55902;-37.980;-63.602;2023-05-07T08:28:37;5.30;;;2.60;;
59960;SDS011;55902;-37.980;-63.602;2023-05-07T08:31:05;4.13;;;2.50;;
59960;SDS011;55902;-37.980;-63.602;2023-05-07T08:33:32;4.65;;;2.50;;
59960;SDS011;55902;-37.980;-63.602;2023-05-07T08:35:59;3.17;;;2.30;;
59960;SDS011;55902;-37.980;-63.602;2023-05-07T08:38:26;3.33;;;2.28;;
59960;SDS011;55902;-37.980;-63.602;2023-05-07T08:40:53;5.15;;;2.25;;
59960;SDS011;55902;-37.980;-63.602;2023-05-07T08:43:20;3.50;;;2.35;;
59960;SDS011;55902;-37.980;-63.602;2023-05-07T08:45:52;3.30;;;2.13;;
59960;SDS011;55902;-37.980;-63.602;2023-05-07T08:48:25;2.90;;;2.20;;
59960;SDS011;55902;-37.980;-63.602;2023-05-07T08:50:53;6.10;;;2.47;;
59960;SDS011;55902;-37.980;-63.602;2023-05-07T08:53:20;3.10;;;2.25;;
59960;SDS011;55902;-37.980;-63.602;2023-05-07T08:55:47;3.20;;;2.20;;
59960;SDS011;55902;-37.980;-63.602;2023-05-07T08:58:14;4.97;;;2.80;;
59960;SDS011;55902;-37.980;-63.602;2023-05-07T09:10:47;3.67;;;2.78;;
59960;SDS011;55902;-37.980;-63.602;2023-05-07T09:13:14;4.75;;;2.85;;
59960;SDS011;55902;-37.980;-63.602;2023-05-07T09:15:43;5.45;;;2.90;;
59960;SDS011;55902;-37.980;-63.602;2023-05-07T09:18:10;4.30;;;2.65;;
59960;SDS011;55902;-37.980;-63.602;2023-05-07T09:20:40;4.85;;;2.90;;
59960;SDS011;55902;-37.980;-63.602;2023-05-07T09:23:07;4.95;;;2.70;;
59960;SDS011;55902;-37.980;-63.602;2023-05-07T09:25:35;4.18;;;2.63;;
59960;SDS011;55902;-37.980;-63.602;2023-05-07T09:28:03;4.18;;;2.80;;
59960;SDS011;55902;-37.980;-63.602;2023-05-07T09:30:35;5.55;;;2.70;;
59960;SDS011;55902;-37.980;-63.602;2023-05-07T09:33:03;4.07;;;2.80;;
59960;SDS011;55902;-37.980;-63.602;2023-05-07T09:35:30;5.00;;;3.05;;
59960;SDS011;55902;-37.980;-63.602;2023-05-07T09:37:57;3.75;;;2.83;;
59960;SDS011;55902;-37.980;-63.602;2023-05-07T09:40:26;4.10;;;2.60;;
59960;SDS011;55902;-37.980;-63.602;2023-05-07T09:42:54;4.95;;;2.92;;
59960;SDS011;55902;-37.980;-63.602;2023-05-07T09:45:22;4.95;;;2.95;;
59960;SDS011;55902;-37.980;-63.602;2023-05-07T09:47:56;5.25;;;2.60;;
59960;SDS011;55902;-37.980;-63.602;2023-05-07T09:50:28;4.50;;;2.90;;
59960;SDS011;55902;-37.980;-63.602;2023-05-07T09:52:56;2.85;;;2.50;;
59960;SDS011;55902;-37.980;-63.602;2023-05-07T09:55:23;6.38;;;2.58;;
59960;SDS011;55902;-37.980;-63.602;2023-05-07T09:57:51;3.33;;;2.60;;
59960;SDS011;55902;-37.980;-63.602;2023-05-07T10:00:21;7.18;;;2.70;;
59960;SDS011;55902;-37.980;-63.602;2023-05-07T10:02:49;4.38;;;2.50;;
59960;SDS011;55902;-37.980;-63.602;2023-05-07T10:05:18;8.38;;;2.55;;
59960;SDS011;55902;-37.980;-63.602;2023-05-07T10:07:48;6.00;;;2.70;;
59960;SDS011;55902;-37.980;-63.602;2023-05-07T10:10:15;4.65;;;2.60;;
59960;SDS011;55902;-37.980;-63.602;2023-05-07T10:12:43;6.50;;;2.45;;
59960;SDS011;55902;-37.980;-63.602;2023-05-07T10:15:11;2.50;;;2.30;;
59960;SDS011;55902;-37.980;-63.602;2023-05-07T10:17:40;3.78;;;2.60;;
59960;SDS011;55902;-37.980;-63.602;2023-05-07T10:20:07;3.63;;;2.55;;
59960;SDS011;55902;-37.980;-63.602;2023-05-07T10:22:38;4.03;;;2.50;;
59960;SDS011;55902;-37.980;-63.602;2023-05-07T10:25:14;4.82;;;2.75;;
59960;SDS011;55902;-37.980;-63.602;2023-05-07T10:27:47;3.40;;;2.65;;
59960;SDS011;55902;-37.980;-63.602;2023-05-07T10:30:21;4.35;;;2.83;;
59960;SDS011;55902;-37.980;-63.602;2023-05-07T10:32:55;3.33;;;2.60;;
59960;SDS011;55902;-37.980;-63.602;2023-05-07T10:35:31;4.90;;;3.03;;
59960;SDS011;55902;-37.980;-63.602;2023-05-07T10:38:03;4.75;;;3.00;;
59960;SDS011;55902;-37.980;-63.602;2023-05-07T10:40:31;5.07;;;2.70;;
59960;SDS011;55902;-37.980;-63.602;2023-05-07T10:42:59;8.10;;;3.58;;
59960;SDS011;55902;-37.980;-63.602;2023-05-07T10:45:28;7.25;;;3.50;;
59960;SDS011;55902;-37.980;-63.602;2023-05-07T10:50:37;5.13;;;3.60;;
59960;SDS011;55902;-37.980;-63.602;2023-05-07T10:58:47;10.15;;;5.20;;
59960;SDS011;55902;-37.980;-63.602;2023-05-07T11:01:14;8.88;;;4.55;;
59960;SDS011;55902;-37.980;-63.602;2023-05-07T11:04:14;8.20;;;5.53;;
59960;SDS011;55902;-37.980;-63.602;2023-05-07T11:07:09;12.13;;;5.70;;
59960;SDS011;55902;-37.980;-63.602;2023-05-07T11:15:09;11.32;;;5.72;;
59960;SDS011;55902;-37.980;-63.602;2023-05-07T11:17:53;9.73;;;5.00;;
59960;SDS011;55902;-37.980;-63.602;2023-05-07T11:20:21;11.95;;;4.30;;
59960;SDS011;55902;-37.980;-63.602;2023-05-07T11:26:07;11.75;;;4.45;;
59960;SDS011;55902;-37.980;-63.602;2023-05-07T11:28:39;10.15;;;4.10;;
59960;SDS011;55902;-37.980;-63.602;2023-05-07T11:31:07;5.45;;;3.55;;
59960;SDS011;55902;-37.980;-63.602;2023-05-07T11:33:35;5.97;;;3.45;;
59960;SDS011;55902;-37.980;-63.602;2023-05-07T11:36:04;6.07;;;3.53;;
59960;SDS011;55902;-37.980;-63.602;2023-05-07T11:38:36;5.30;;;3.15;;
59960;SDS011;55902;-37.980;-63.602;2023-05-07T11:41:04;5.30;;;3.40;;
59960;SDS011;55902;-37.980;-63.602;2023-05-07T12:05:01;10.75;;;4.80;;
59960;SDS011;55902;-37.980;-63.602;2023-05-07T12:07:28;10.25;;;4.57;;
59960;SDS011;55902;-37.980;-63.602;2023-05-07T12:09:57;11.73;;;4.38;;
59960;SDS011;55902;-37.980;-63.602;2023-05-07T12:12:24;9.13;;;4.35;;
59960;SDS011;55902;-37.980;-63.602;2023-05-07T12:14:52;11.70;;;5.03;;
59960;SDS011;55902;-37.980;-63.602;2023-05-07T12:17:19;14.32;;;5.45;;
59960;SDS011;55902;-37.980;-63.602;2023-05-07T12:19:46;13.18;;;6.55;;
59960;SDS011;55902;-37.980;-63.602;2023-05-07T12:22:13;11.30;;;5.28;;
59960;SDS011;55902;-37.980;-63.602;2023-05-07T12:27:12;9.73;;;5.05;;
59960;SDS011;55902;-37.980;-63.602;2023-05-07T12:29:43;10.77;;;4.57;;
59960;SDS011;55902;-37.980;-63.602;2023-05-07T12:32:18;8.07;;;4.00;;
59960;SDS011;55902;-37.980;-63.602;2023-05-07T12:34:46;6.47;;;3.22;;
59960;SDS011;55902;-37.980;-63.602;2023-05-07T12:37:16;7.22;;;3.20;;
59960;SDS011;55902;-37.980;-63.602;2023-05-07T12:39:48;5.95;;;3.28;;
59960;SDS011;55902;-37.980;-63.602;2023-05-07T12:42:32;5.97;;;3.42;;
59960;SDS011;55902;-37.980;-63.602;2023-05-07T12:45:11;4.95;;;3.05;;
59960;SDS011;55902;-37.980;-63.602;2023-05-07T12:47:38;4.28;;;2.72;;
59960;SDS011;55902;-37.980;-63.602;2023-05-07T12:50:10;4.00;;;2.72;;
59960;SDS011;55902;-37.980;-63.602;2023-05-07T12:52:37;5.90;;;2.83;;
59960;SDS011;55902;-37.980;-63.602;2023-05-07T12:58:29;2.92;;;2.40;;
59960;SDS011;55902;-37.980;-63.602;2023-05-07T13:01:04;3.38;;;2.30;;
59960;SDS011;55902;-37.980;-63.602;2023-05-07T13:10:06;4.07;;;2.70;;
59960;SDS011;55902;-37.980;-63.602;2023-05-07T13:12:33;9.57;;;4.43;;
59960;SDS011;55902;-37.980;-63.602;2023-05-07T13:15:00;8.35;;;4.47;;
59960;SDS011;55902;-37.980;-63.602;2023-05-07T13:17:28;6.53;;;3.90;;
59960;SDS011;55902;-37.980;-63.602;2023-05-07T13:19:56;6.28;;;3.08;;
59960;SDS011;55902;-37.980;-63.602;2023-05-07T13:22:23;8.98;;;3.40;;
59960;SDS011;55902;-37.980;-63.602;2023-05-07T13:24:50;6.43;;;2.60;;
59960;SDS011;55902;-37.980;-63.602;2023-05-07T13:27:17;4.43;;;2.20;;
59960;SDS011;55902;-37.980;-63.602;2023-05-07T13:29:45;3.92;;;1.90;;
59960;SDS011;55902;-37.980;-63.602;2023-05-07T13:32:12;3.95;;;1.70;;
59960;SDS011;55902;-37.980;-63.602;2023-05-07T13:34:38;4.88;;;1.85;;
59960;SDS011;55902;-37.980;-63.602;2023-05-07T13:37:06;5.40;;;2.03;;
59960;SDS011;55902;-37.980;-63.602;2023-05-07T13:39:33;4.63;;;1.80;;
59960;SDS011;55902;-37.980;-63.602;2023-05-07T13:42:00;5.30;;;2.00;;
59960;SDS011;55902;-37.980;-63.602;2023-05-07T13:44:27;4.68;;;1.90;;
59960;SDS011;55902;-37.980;-63.602;2023-05-07T13:46:54;5.30;;;1.90;;
59960;SDS011;55902;-37.980;-63.602;2023-05-07T13:49:21;3.08;;;1.80;;
59960;SDS011;55902;-37.980;-63.602;2023-05-07T13:51:48;6.15;;;1.80;;
59960;SDS011;55902;-37.980;-63.602;2023-05-07T13:54:15;6.43;;;1.40;;
59960;SDS011;55902;-37.980;-63.602;2023-05-07T13:56:42;3.58;;;1.40;;
59960;SDS011;55902;-37.980;-63.602;2023-05-07T14:02:31;5.05;;;1.65;;
59960;SDS011;55902;-37.980;-63.602;2023-05-07T14:04:59;7.22;;;2.60;;
59960;SDS011;55902;-37.980;-63.602;2023-05-07T14:07:26;5.50;;;2.17;;
59960;SDS011;55902;-37.980;-63.602;2023-05-07T14:20:10;2.92;;;1.20;;
59960;SDS011;55902;-37.980;-63.602;2023-05-07T14:22:38;2.83;;;1.20;;
59960;SDS011;55902;-37.980;-63.602;2023-05-07T14:25:05;4.25;;;1.00;;
59960;SDS011;55902;-37.980;-63.602;2023-05-07T14:27:35;2.15;;;1.00;;
59960;SDS011;55902;-37.980;-63.602;2023-05-07T14:30:02;5.97;;;1.25;;
59960;SDS011;55902;-37.980;-63.602;2023-05-07T14:32:29;1.65;;;1.20;;
59960;SDS011;55902;-37.980;-63.602;2023-05-07T14:34:56;5.05;;;1.70;;
59960;SDS011;55902;-37.980;-63.602;2023-05-07T14:37:23;2.08;;;1.20;;
59960;SDS011;55902;-37.980;-63.602;2023-05-07T14:39:50;1.60;;;1.00;;
59960;SDS011;55902;-37.980;-63.602;2023-05-07T14:42:17;3.17;;;1.10;;
59960;SDS011;55902;-37.980;-63.602;2023-05-07T14:44:44;2.25;;;1.10;;
59960;SDS011;55902;-37.980;-63.602;2023-05-07T14:47:13;3.28;;;1.23;;
59960;SDS011;55902;-37.980;-63.602;2023-05-07T14:49:41;2.92;;;1.10;;
59960;SDS011;55902;-37.980;-63.602;2023-05-07T14:52:08;2.22;;;1.20;;
59960;SDS011;55902;-37.980;-63.602;2023-05-07T14:54:36;2.97;;;1.20;;
59960;SDS011;55902;-37.980;-63.602;2023-05-07T14:57:04;2.95;;;1.20;;
59960;SDS011;55902;-37.980;-63.602;2023-05-07T14:59:31;1.70;;;1.08;;
59960;SDS011;55902;-37.980;-63.602;2023-05-07T15:01:59;4.47;;;1.40;;
59960;SDS011;55902;-37.980;-63.602;2023-05-07T15:04:26;4.78;;;2.40;;
59960;SDS011;55902;-37.980;-63.602;2023-05-07T15:06:53;3.33;;;1.58;;
59960;SDS011;55902;-37.980;-63.602;2023-05-07T15:09:21;3.25;;;1.58;;
59960;SDS011;55902;-37.980;-63.602;2023-05-07T15:11:48;4.25;;;1.80;;
59960;SDS011;55902;-37.980;-63.602;2023-05-07T15:14:15;4.38;;;1.80;;
59960;SDS011;55902;-37.980;-63.602;2023-05-07T15:16:42;4.47;;;1.40;;
59960;SDS011;55902;-37.980;-63.602;2023-05-07T15:19:10;5.75;;;2.10;;
59960;SDS011;55902;-37.980;-63.602;2023-05-07T15:21:37;3.38;;;2.03;;
59960;SDS011;55902;-37.980;-63.602;2023-05-07T15:24:04;3.60;;;2.00;;
59960;SDS011;55902;-37.980;-63.602;2023-05-07T15:26:32;4.32;;;2.55;;
59960;SDS011;55902;-37.980;-63.602;2023-05-07T15:28:59;3.70;;;1.98;;
59960;SDS011;55902;-37.980;-63.602;2023-05-07T15:31:28;6.78;;;2.20;;
59960;SDS011;55902;-37.980;-63.602;2023-05-07T15:33:55;4.03;;;2.20;;
59960;SDS011;55902;-37.980;-63.602;2023-05-07T15:36:22;4.57;;;1.75;;
59960;SDS011;55902;-37.980;-63.602;2023-05-07T15:38:49;4.93;;;2.30;;
59960;SDS011;55902;-37.980;-63.602;2023-05-07T15:41:16;5.22;;;2.92;;
59960;SDS011;55902;-37.980;-63.602;2023-05-07T15:43:44;4.20;;;2.40;;
59960;SDS011;55902;-37.980;-63.602;2023-05-07T15:46:19;5.13;;;2.40;;
59960;SDS011;55902;-37.980;-63.602;2023-05-07T15:51:16;4.85;;;1.92;;
59960;SDS011;55902;-37.980;-63.602;2023-05-07T15:53:44;4.05;;;1.60;;
59960;SDS011;55902;-37.980;-63.602;2023-05-07T15:56:11;5.25;;;1.77;;
59960;SDS011;55902;-37.980;-63.602;2023-05-07T15:58:40;5.75;;;2.10;;
59960;SDS011;55902;-37.980;-63.602;2023-05-07T16:01:07;5.35;;;2.03;;
59960;SDS011;55902;-37.980;-63.602;2023-05-07T16:03:34;4.70;;;1.77;;
59960;SDS011;55902;-37.980;-63.602;2023-05-07T16:06:02;3.10;;;1.42;;
59960;SDS011;55902;-37.980;-63.602;2023-05-07T16:08:30;4.05;;;1.20;;
59960;SDS011;55902;-37.980;-63.602;2023-05-07T16:10:58;2.80;;;1.10;;
59960;SDS011;55902;-37.980;-63.602;2023-05-07T16:13:25;2.38;;;0.93;;